Altona, Indiana
Current Conditions -  °F | °C
As of 3:55 AM on Monday 22 Dec 2014 (Local Time) from KGWB Reporting Station
Haze Haze  
Wind Chill: -6°   Ceiling: Unl
Heat Index: -3°   Visibility: 5mi
Dew Point: -5°   Wind: 5mph
Humidity: 86%   Direction: 100°E
Pressure: 30.07"   Gusts: NA
Location:  41.3275°N, 85.1414°W
Report Text: KGWB 220855Z AUTO 10004KT 5SM BR CLR M03/M05 A3007 RMK AO2
Loading
Personal Weather Stations






























Interactive Weather Map New forecast layout! Learn more

10-Day Weather Forecast

Advertisements
Track Severe Weather on mobile